Time;durP1;ratioP1;P1;durP2;ratioP2;P2;SDS_P1;SDS_P2;PMS_P1;PMS_P2;Temp;Humidity;BMP_temperature;BMP_pressure;BME280_temperature;BME280_humidity;BME280_pressure;Samples;Min_cycle;Max_cycle;Signal;HPM_P1;HPM_P2
2022/05/18 00:00:47;;;;;;;;;;;;;;;24.88;39.85;99458.81;4472706;32;33185;-88
2022/05/18 00:03:17;;;;;;;;;;;;;;;25.02;39.76;99469.72;4468871;32;32840;-87
2022/05/18 00:05:45;;;;;;;;;;;;;;;25.02;39.95;99476.81;4483142;32;33915;-87
2022/05/18 00:08:12;;;;;;;;;;;;;;;25.21;39.58;99462.72;4468142;32;34163;-87
2022/05/18 00:10:43;;;;;;;;;;;;;;;25.54;39.23;99466.66;4460649;32;33190;-87
2022/05/18 00:13:10;;;;;;;;;;;;;;;25.47;39.61;99468.72;4461123;32;35145;-88
2022/05/18 00:15:38;;;;;;;;;;;;;;;25.84;38.85;99468.00;4469178;32;34649;-87
2022/05/18 00:18:05;;;;;;;;;;;;;;;25.86;38.71;99468.78;4483174;32;33990;-87
2022/05/18 00:20:33;;;;;;;;;;;;;;;25.92;38.47;99470.31;4461916;32;34032;-87
2022/05/18 00:23:03;;;;;;;;;;;;;;;25.91;38.40;99477.41;4482687;32;33224;-88
2022/05/18 00:25:35;;;;;;;;;;;;;;;24.69;40.35;99478.09;4469167;32;34845;-86
2022/05/18 00:28:03;;;;;;;;;;;;;;;25.10;39.88;99480.91;4483386;32;34886;-88
2022/05/18 00:30:31;;;;;;;;;;;;;;;24.96;40.25;99480.56;4461313;32;34050;-86
2022/05/18 00:33:04;;;;;;;;;;;;;;;23.90;41.68;99482.00;4467656;32;34034;-88
2022/05/18 00:35:33;;;;;;;;;;;;;;;24.18;39.73;99481.84;4454846;32;33509;-88
2022/05/18 00:38:00;;;;;;;;;;;;;;;23.61;39.82;99484.81;4453255;32;35003;-88
2022/05/18 00:40:28;;;;;;;;;;;;;;;22.91;40.91;99486.28;4481509;32;33738;-87
2022/05/18 00:42:55;;;;;;;;;;;;;;;23.53;38.67;99479.78;4465053;32;33654;-87
2022/05/18 00:45:23;;;;;;;;;;;;;;;23.07;39.56;99497.25;4482668;32;35423;-88
2022/05/18 00:47:51;;;;;;;;;;;;;;;23.01;39.76;99490.34;4469027;32;33622;-88
2022/05/18 00:50:22;;;;;;;;;;;;;;;22.87;39.93;99483.75;4476961;32;33233;-88
2022/05/18 00:52:56;;;;;;;;;;;;;;;23.31;39.42;99491.13;4465311;32;33785;-87
2022/05/18 00:55:24;;;;;;;;;;;;;;;23.42;39.23;99485.47;4470131;32;33870;-86
2022/05/18 00:57:52;;;;;;;;;;;;;;;23.46;39.64;99494.16;4481215;32;34495;-88
2022/05/18 01:00:20;;;;;;;;;;;;;;;23.44;38.98;99493.31;4482894;32;33454;-88
2022/05/18 01:02:50;;;;;;;;;;;;;;;22.89;39.86;99501.31;4454267;32;33997;-88
2022/05/18 01:05:19;;;;;;;;;;;;;;;23.97;37.99;99496.72;4453781;32;35226;-87
2022/05/18 01:07:48;;;;;;;;;;;;;;;23.65;38.02;99503.19;4453609;32;33840;-88
2022/05/18 01:10:15;;;;;;;;;;;;;;;23.31;39.05;99512.28;4468063;32;33346;-87
2022/05/18 01:12:43;;;;;;;;;;;;;;;23.74;37.77;99502.88;4479906;32;33784;-87
2022/05/18 01:15:11;;;;;;;;;;;;;;;23.70;37.73;99509.19;4481475;32;34291;-89
2022/05/18 01:17:40;;;;;;;;;;;;;;;23.65;37.98;99516.41;4468377;32;34086;-86
2022/05/18 01:20:09;;;;;;;;;;;;;;;24.15;37.04;99510.22;4465591;32;33640;-86
2022/05/18 01:22:39;;;;;;;;;;;;;;;24.52;36.40;99515.03;4458820;32;34398;-88
2022/05/18 01:25:22;;;;;;;;;;;;;;;24.79;36.30;99518.38;4467502;32;34127;-88
2022/05/18 01:27:50;;;;;;;;;;;;;;;24.32;36.73;99523.72;4467425;32;34934;-87
2022/05/18 01:30:18;;;;;;;;;;;;;;;24.73;36.49;99524.78;4467176;32;33257;-87
2022/05/18 01:32:46;;;;;;;;;;;;;;;25.02;36.49;99525.41;4465919;32;33721;-87
2022/05/18 01:35:15;;;;;;;;;;;;;;;25.10;37.10;99533.97;4474284;32;34534;-88
2022/05/18 01:37:42;;;;;;;;;;;;;;;24.80;37.16;99527.19;4467559;32;33516;-87
2022/05/18 01:40:12;;;;;;;;;;;;;;;25.12;37.18;99534.78;4467178;32;33458;-88
2022/05/18 01:42:45;;;;;;;;;;;;;;;25.34;36.38;99537.38;4465314;32;33851;-88
2022/05/18 01:45:13;;;;;;;;;;;;;;;25.38;36.19;99539.00;4455112;32;33554;-87
2022/05/18 01:47:40;;;;;;;;;;;;;;;24.77;37.04;99536.13;4452927;32;34821;-86
2022/05/18 01:50:12;;;;;;;;;;;;;;;25.14;36.99;99535.56;4466059;32;33108;-87
2022/05/18 01:52:39;;;;;;;;;;;;;;;25.11;36.86;99535.66;4461673;32;34276;-88
2022/05/18 01:55:07;;;;;;;;;;;;;;;25.12;36.47;99534.78;4475180;32;34299;-87
2022/05/18 01:57:34;;;;;;;;;;;;;;;25.31;35.98;99542.84;4480449;32;33907;-87
2022/05/18 02:00:05;;;;;;;;;;;;;;;25.23;35.66;99548.47;4477911;32;32934;-88
2022/05/18 02:02:38;;;;;;;;;;;;;;;25.04;35.87;99544.81;4470587;32;34328;-88
2022/05/18 02:05:06;;;;;;;;;;;;;;;25.07;35.64;99547.31;4453772;32;34030;-87
2022/05/18 02:07:33;;;;;;;;;;;;;;;25.29;35.08;99559.75;4468914;32;34462;-88
2022/05/18 02:10:01;;;;;;;;;;;;;;;24.51;36.01;99553.06;4464870;32;33092;-88
2022/05/18 02:12:28;;;;;;;;;;;;;;;24.37;36.23;99561.50;4480160;32;33935;-88
2022/05/18 02:14:55;;;;;;;;;;;;;;;24.48;36.07;99558.50;4483371;32;34404;-87
2022/05/18 02:17:23;;;;;;;;;;;;;;;24.88;35.33;99568.41;4470985;32;34409;-88
2022/05/18 02:19:51;;;;;;;;;;;;;;;24.75;35.31;99575.97;4479605;32;32806;-87
2022/05/18 02:22:18;;;;;;;;;;;;;;;24.42;35.97;99566.66;4473934;32;34692;-87
2022/05/18 02:24:46;;;;;;;;;;;;;;;24.38;35.75;99571.19;4475482;32;34833;-87
2022/05/18 02:27:13;;;;;;;;;;;;;;;24.40;35.79;99573.81;4468855;32;34953;-88
2022/05/18 02:29:40;;;;;;;;;;;;;;;24.31;35.89;99579.41;4468654;32;34060;-88
2022/05/18 02:32:09;;;;;;;;;;;;;;;24.20;36.11;99593.03;4475847;32;34173;-89
2022/05/18 02:34:36;;;;;;;;;;;;;;;24.25;35.98;99586.66;4454569;32;34053;-89
2022/05/18 02:37:04;;;;;;;;;;;;;;;24.21;35.91;99585.06;4457510;32;34770;-88
2022/05/18 02:39:31;;;;;;;;;;;;;;;23.98;36.40;99595.59;4469411;32;32658;-88
2022/05/18 02:41:58;;;;;;;;;;;;;;;24.16;36.31;99596.72;4477436;32;34382;-88
2022/05/18 02:44:26;;;;;;;;;;;;;;;24.13;36.60;99595.06;4483179;32;34355;-86
2022/05/18 02:46:57;;;;;;;;;;;;;;;24.14;36.61;99599.44;4484298;32;34235;-88
2022/05/18 02:49:25;;;;;;;;;;;;;;;23.79;37.06;99603.34;4469121;32;33123;-88
2022/05/18 02:51:53;;;;;;;;;;;;;;;23.72;37.57;99607.09;4466471;32;34612;-87
2022/05/18 02:57:08;;;;;;;;;;;;;;;23.66;38.40;99613.47;4457647;32;34115;-87
2022/05/18 02:59:35;;;;;;;;;;;;;;;23.81;38.32;99616.50;4463829;32;32846;-87
2022/05/18 03:02:03;;;;;;;;;;;;;;;23.71;38.29;99621.22;4465272;32;34456;-87
2022/05/18 03:04:30;;;;;;;;;;;;;;;23.79;37.98;99616.56;4461229;32;33876;-87
2022/05/18 03:06:58;;;;;;;;;;;;;;;23.84;37.82;99616.41;4461383;32;34401;-88
2022/05/18 03:09:25;;;;;;;;;;;;;;;23.46;38.31;99624.69;4458888;32;33300;-88
2022/05/18 03:11:53;;;;;;;;;;;;;;;23.63;37.84;99624.09;4458890;32;34883;-88
2022/05/18 03:14:21;;;;;;;;;;;;;;;23.57;38.08;99628.75;4467802;32;34392;-87
2022/05/18 03:16:48;;;;;;;;;;;;;;;23.51;37.93;99635.97;4465998;32;34056;-87
2022/05/18 03:19:15;;;;;;;;;;;;;;;23.19;38.52;99639.66;4459801;32;33998;-88
2022/05/18 03:24:29;;;;;;;;;;;;;;;23.31;37.97;99649.84;4462053;32;34085;-88
2022/05/18 03:26:56;;;;;;;;;;;;;;;23.16;38.11;99652.97;4461648;32;34039;-88
2022/05/18 03:29:24;;;;;;;;;;;;;;;23.30;37.77;99658.72;4457552;32;33269;-88
2022/05/18 03:31:51;;;;;;;;;;;;;;;23.05;38.27;99657.72;4453241;32;33946;-87
2022/05/18 03:34:19;;;;;;;;;;;;;;;23.21;38.12;99673.97;4462695;32;35126;-89
2022/05/18 03:36:46;;;;;;;;;;;;;;;23.24;37.96;99668.59;4462504;32;33967;-88
2022/05/18 03:39:15;;;;;;;;;;;;;;;23.45;37.43;99675.00;4467634;32;34061;-88
2022/05/18 03:41:43;;;;;;;;;;;;;;;23.45;37.57;99683.81;4459967;32;34103;-88
2022/05/18 03:44:10;;;;;;;;;;;;;;;23.10;38.35;99686.66;4467762;32;35295;-88
2022/05/18 03:46:37;;;;;;;;;;;;;;;23.11;38.54;99693.69;4461681;32;34928;-88
2022/05/18 03:49:05;;;;;;;;;;;;;;;22.16;40.41;99706.88;4455392;32;33309;-87
2022/05/18 03:51:32;;;;;;;;;;;;;;;22.88;39.14;99703.16;4463483;32;33950;-87
2022/05/18 03:54:00;;;;;;;;;;;;;;;22.26;40.87;99717.16;4468897;32;33494;-87
2022/05/18 03:56:27;;;;;;;;;;;;;;;21.80;41.00;99717.44;4481473;31;33810;-88
2022/05/18 03:58:54;;;;;;;;;;;;;;;22.45;40.48;99721.97;4480574;31;33402;-88
2022/05/18 04:01:22;;;;;;;;;;;;;;;22.83;39.87;99727.06;4468177;32;34908;-88
2022/05/18 04:03:49;;;;;;;;;;;;;;;23.20;39.30;99723.38;4468209;32;34194;-89
2022/05/18 04:06:17;;;;;;;;;;;;;;;23.17;39.29;99727.91;4476987;32;34084;-87
2022/05/18 04:08:44;;;;;;;;;;;;;;;23.14;39.47;99726.19;4467851;32;34019;-88
2022/05/18 04:11:12;;;;;;;;;;;;;;;22.98;39.31;99728.44;4475765;32;34642;-87
2022/05/18 04:13:39;;;;;;;;;;;;;;;23.23;38.66;99728.59;4481079;32;34675;-88
2022/05/18 04:16:08;;;;;;;;;;;;;;;23.95;38.05;99736.06;4476855;32;34313;-87
2022/05/18 04:18:36;;;;;;;;;;;;;;;24.63;36.60;99742.63;4467794;32;33387;-88
2022/05/18 04:21:04;;;;;;;;;;;;;;;24.44;35.99;99739.75;4481189;31;32422;-87
2022/05/18 04:23:31;;;;;;;;;;;;;;;24.82;36.04;99743.69;4482777;32;34122;-88
2022/05/18 04:25:58;;;;;;;;;;;;;;;25.27;34.33;99744.69;4467489;32;34897;-87
2022/05/18 04:28:26;;;;;;;;;;;;;;;26.08;34.65;99749.47;4475414;32;33431;-88
2022/05/18 04:30:53;;;;;;;;;;;;;;;25.56;34.70;99746.22;4470996;32;34034;-88
2022/05/18 04:33:21;;;;;;;;;;;;;;;25.89;33.18;99757.31;4470704;32;34537;-86
2022/05/18 04:35:51;;;;;;;;;;;;;;;26.46;33.38;99765.63;4480183;32;33911;-89
2022/05/18 04:38:19;;;;;;;;;;;;;;;26.72;33.37;99776.00;4480034;32;34037;-85
2022/05/18 04:40:49;;;;;;;;;;;;;;;25.21;34.23;99765.25;4460726;31;34130;-87
2022/05/18 04:43:18;;;;;;;;;;;;;;;25.99;33.81;99774.63;4480005;32;34323;-85
2022/05/18 04:45:45;;;;;;;;;;;;;;;26.52;33.07;99774.19;4473792;32;34686;-87
2022/05/18 04:48:15;;;;;;;;;;;;;;;26.76;32.64;99782.91;4469366;32;33732;-86
2022/05/18 04:50:43;;;;;;;;;;;;;;;26.95;32.14;99779.44;4470410;31;34936;-86
2022/05/18 04:53:11;;;;;;;;;;;;;;;24.91;35.69;99792.88;4470897;32;35148;-84
2022/05/18 04:55:38;;;;;;;;;;;;;;;25.48;34.97;99789.00;4455329;32;33715;-86
2022/05/18 04:58:06;;;;;;;;;;;;;;;25.49;33.95;99790.72;4479977;31;33370;-86
2022/05/18 05:00:33;;;;;;;;;;;;;;;26.68;32.89;99804.50;4474208;32;34399;-87
2022/05/18 05:03:00;;;;;;;;;;;;;;;26.75;33.31;99809.59;4483205;32;34311;-87
2022/05/18 05:05:28;;;;;;;;;;;;;;;25.94;32.93;99819.94;4473672;32;33975;-86
2022/05/18 05:07:56;;;;;;;;;;;;;;;27.08;32.07;99820.50;4469143;32;33073;-87
2022/05/18 05:10:23;;;;;;;;;;;;;;;27.70;30.90;99818.59;4465513;32;34778;-85
2022/05/18 05:12:51;;;;;;;;;;;;;;;25.19;31.88;99824.59;4482118;32;35351;-84
2022/05/18 05:15:19;;;;;;;;;;;;;;;24.71;33.42;99834.22;4480851;32;34945;-86
2022/05/18 05:17:47;;;;;;;;;;;;;;;24.12;32.17;99828.22;4469942;32;33399;-86
2022/05/18 05:20:14;;;;;;;;;;;;;;;24.61;31.93;99831.94;4467412;32;34258;-86
2022/05/18 05:22:41;;;;;;;;;;;;;;;24.30;32.01;99843.53;4467082;32;34402;-85
2022/05/18 05:25:09;;;;;;;;;;;;;;;24.38;32.24;99846.78;4467493;32;33893;-85
2022/05/18 05:27:36;;;;;;;;;;;;;;;23.38;32.87;99859.56;4481376;32;33045;-88
2022/05/18 05:30:04;;;;;;;;;;;;;;;21.96;35.20;99857.84;4473650;32;33841;-85
2022/05/18 05:32:32;;;;;;;;;;;;;;;21.49;36.17;99880.88;4482435;32;34549;-85
2022/05/18 05:35:00;;;;;;;;;;;;;;;22.59;33.66;99870.47;4464370;32;33969;-84
2022/05/18 05:37:27;;;;;;;;;;;;;;;22.58;33.73;99864.31;4478384;32;33564;-86
2022/05/18 05:39:55;;;;;;;;;;;;;;;23.21;31.65;99872.37;4482883;32;34800;-87
2022/05/18 05:42:23;;;;;;;;;;;;;;;23.68;31.55;99876.34;4481550;32;34422;-86
2022/05/18 05:44:50;;;;;;;;;;;;;;;24.04;31.39;99882.31;4482561;32;35070;-86
2022/05/18 05:47:18;;;;;;;;;;;;;;;24.35;30.97;99883.97;4482918;32;34281;-85
2022/05/18 05:49:45;;;;;;;;;;;;;;;24.14;32.03;99892.63;4479162;32;35078;-87
2022/05/18 05:52:12;;;;;;;;;;;;;;;23.63;33.16;99912.63;4473037;32;34515;-85
2022/05/18 05:54:40;;;;;;;;;;;;;;;23.90;32.72;99910.13;4483012;32;33938;-85
2022/05/18 05:57:07;;;;;;;;;;;;;;;23.19;32.82;99914.75;4470613;32;33651;-86
2022/05/18 05:59:35;;;;;;;;;;;;;;;22.01;34.02;99921.97;4466603;32;34106;-85
2022/05/18 06:02:04;;;;;;;;;;;;;;;21.13;35.55;99944.78;4466925;32;35906;-85
2022/05/18 06:04:33;;;;;;;;;;;;;;;21.49;34.72;99939.78;4452944;32;34900;-87
2022/05/18 06:07:00;;;;;;;;;;;;;;;21.28;34.64;99938.34;4452600;32;33984;-86
2022/05/18 06:09:27;;;;;;;;;;;;;;;21.19;34.11;99950.88;4479796;32;34286;-86
2022/05/18 06:11:55;;;;;;;;;;;;;;;21.82;32.78;99953.16;4468297;32;35195;-85
2022/05/18 06:14:22;;;;;;;;;;;;;;;20.35;35.24;99964.47;4482058;32;34980;-87
2022/05/18 06:16:49;;;;;;;;;;;;;;;20.01;36.79;99964.06;4482503;32;33328;-88
2022/05/18 06:19:17;;;;;;;;;;;;;;;21.39;34.19;99959.28;4482245;32;34889;-86
2022/05/18 06:21:46;;;;;;;;;;;;;;;21.84;33.63;99954.03;4464014;32;35272;-85
2022/05/18 06:24:15;;;;;;;;;;;;;;;21.18;34.70;99965.81;4469554;32;34263;-84
2022/05/18 06:26:42;;;;;;;;;;;;;;;22.18;32.88;99969.19;4468864;32;34377;-85
2022/05/18 06:29:10;;;;;;;;;;;;;;;20.77;33.76;99967.38;4468131;32;34169;-84
2022/05/18 06:31:37;;;;;;;;;;;;;;;21.22;33.07;99975.41;4482230;32;34848;-85
2022/05/18 06:34:06;;;;;;;;;;;;;;;21.04;33.41;99971.31;4482259;32;33764;-85
2022/05/18 06:36:34;;;;;;;;;;;;;;;21.60;31.69;99976.50;4481850;32;33106;-85
2022/05/18 06:39:02;;;;;;;;;;;;;;;20.53;32.45;99983.56;4475198;32;34224;-85
2022/05/18 06:41:33;;;;;;;;;;;;;;;21.05;33.19;99988.00;4482227;32;34763;-85
2022/05/18 06:44:02;;;;;;;;;;;;;;;21.08;32.50;100001.12;4482041;32;33714;-85
2022/05/18 06:46:31;;;;;;;;;;;;;;;22.10;31.51;100003.66;4477907;32;33407;-84
2022/05/18 06:48:59;;;;;;;;;;;;;;;21.10;32.72;100007.25;4452037;32;35048;-84
2022/05/18 06:51:28;;;;;;;;;;;;;;;21.26;32.24;100018.44;4473951;32;34160;-84
2022/05/18 06:53:56;;;;;;;;;;;;;;;22.26;31.21;100015.66;4470091;32;34114;-82
2022/05/18 06:56:25;;;;;;;;;;;;;;;22.01;31.12;100020.56;4462775;32;34333;-85
2022/05/18 06:58:52;;;;;;;;;;;;;;;22.40;30.50;100033.84;4454446;32;35086;-85
2022/05/18 07:01:23;;;;;;;;;;;;;;;21.90;31.28;100026.97;4454548;32;34379;-85
2022/05/18 07:03:50;;;;;;;;;;;;;;;21.80;32.00;100027.13;4454043;32;34257;-85
2022/05/18 07:06:26;;;;;;;;;;;;;;;21.33;32.85;100035.94;4455175;32;33565;-85
2022/05/18 07:08:55;;;;;;;;;;;;;;;23.08;30.53;100033.19;4454497;32;33746;-85
2022/05/18 07:11:23;;;;;;;;;;;;;;;21.50;32.51;100046.16;4468295;32;35024;-87
2022/05/18 07:13:52;;;;;;;;;;;;;;;21.30;31.72;100052.62;4468404;32;34470;-86
2022/05/18 07:16:23;;;;;;;;;;;;;;;21.85;30.63;100050.78;4454357;32;34412;-87
2022/05/18 07:18:51;;;;;;;;;;;;;;;22.83;29.66;100057.53;4454011;32;34834;-85
2022/05/18 07:21:18;;;;;;;;;;;;;;;22.74;30.56;100060.41;4468402;32;35247;-83
2022/05/18 07:23:46;;;;;;;;;;;;;;;22.71;29.97;100063.09;4468200;32;34169;-85
2022/05/18 07:26:14;;;;;;;;;;;;;;;22.80;30.51;100069.94;4454066;32;34163;-85
2022/05/18 07:28:41;;;;;;;;;;;;;;;22.50;30.24;100066.22;4468294;32;35095;-85
2022/05/18 07:31:09;;;;;;;;;;;;;;;23.19;28.87;100062.03;4468225;32;34915;-85
2022/05/18 07:33:56;;;;;;;;;;;;;;;23.00;29.97;100061.59;4456413;32;34023;-85
2022/05/18 07:36:24;;;;;;;;;;;;;;;22.48;29.71;100068.91;4468349;32;33443;-85
2022/05/18 07:38:51;;;;;;;;;;;;;;;23.88;29.01;100069.06;4468421;32;34774;-85
2022/05/18 07:41:18;;;;;;;;;;;;;;;21.71;30.52;100079.22;4468167;32;34198;-85
2022/05/18 07:43:46;;;;;;;;;;;;;;;20.76;32.08;100071.06;4468140;32;33258;-85
2022/05/18 07:46:13;;;;;;;;;;;;;;;23.33;29.71;100078.41;4468388;32;34154;-85
2022/05/18 07:48:41;;;;;;;;;;;;;;;23.53;27.58;100070.00;4468101;32;35010;-85
2022/05/18 07:51:10;;;;;;;;;;;;;;;23.40;28.57;100074.72;4467924;32;35271;-86
2022/05/18 07:53:37;;;;;;;;;;;;;;;22.25;30.74;100087.87;4468198;32;34546;-85
2022/05/18 07:56:12;;;;;;;;;;;;;;;21.33;30.93;100091.31;4468426;32;34169;-86
2022/05/18 07:58:39;;;;;;;;;;;;;;;21.89;30.03;100086.78;4467974;32;33382;-85
2022/05/18 08:01:08;;;;;;;;;;;;;;;22.29;30.47;100096.62;4467696;32;35146;-85
2022/05/18 08:03:35;;;;;;;;;;;;;;;23.64;29.22;100091.75;4467260;32;35009;-84
2022/05/18 08:06:03;;;;;;;;;;;;;;;22.11;29.45;100100.44;4468071;32;33614;-86
2022/05/18 08:08:30;;;;;;;;;;;;;;;22.57;30.19;100094.25;4453967;32;34155;-85
2022/05/18 08:16:31;;;;;;;;;;;;;;;22.42;29.17;100107.78;4467835;32;32905;-85
2022/05/18 08:18:59;;;;;;;;;;;;;;;22.20;30.05;100121.44;4468086;32;33805;-86
2022/05/18 08:21:26;;;;;;;;;;;;;;;22.23;29.41;100125.78;4467942;32;34099;-85
2022/05/18 08:23:54;;;;;;;;;;;;;;;21.28;30.90;100122.97;4468247;32;34042;-85
2022/05/18 08:26:24;;;;;;;;;;;;;;;21.95;30.10;100128.91;4468165;32;34348;-84
2022/05/18 08:28:52;;;;;;;;;;;;;;;22.00;30.56;100139.38;4467905;32;35133;-86
2022/05/18 08:31:23;;;;;;;;;;;;;;;21.32;31.57;100137.00;4467676;32;34138;-86
2022/05/18 08:33:52;;;;;;;;;;;;;;;22.53;29.97;100137.50;4467973;32;34176;-85
2022/05/18 08:36:19;;;;;;;;;;;;;;;21.94;30.84;100139.53;4467942;32;34221;-85
2022/05/18 08:38:47;;;;;;;;;;;;;;;21.13;32.22;100155.72;4467814;32;35112;-85
2022/05/18 08:41:15;;;;;;;;;;;;;;;21.60;31.94;100140.09;4467793;32;34199;-86
2022/05/18 08:43:44;;;;;;;;;;;;;;;21.95;30.85;100141.25;4467878;32;34318;-85
2022/05/18 08:46:12;;;;;;;;;;;;;;;22.63;30.55;100141.72;4453520;32;33357;-85
2022/05/18 08:48:48;;;;;;;;;;;;;;;22.29;30.64;100152.97;4467697;32;34592;-85
2022/05/18 08:51:35;;;;;;;;;;;;;;;24.11;29.81;100145.25;4467760;32;34530;-84
2022/05/18 08:54:19;;;;;;;;;;;;;;;23.22;28.14;100136.91;4467690;32;33884;-85
2022/05/18 08:56:47;;;;;;;;;;;;;;;23.84;28.01;100138.91;4467979;32;33616;-85
2022/05/18 08:59:21;;;;;;;;;;;;;;;22.00;29.32;100156.09;4453634;32;34332;-85
2022/05/18 09:01:51;;;;;;;;;;;;;;;22.85;28.46;100151.84;4467848;32;34019;-85
2022/05/18 09:04:20;;;;;;;;;;;;;;;22.43;29.12;100154.47;4454004;32;34275;-85
2022/05/18 09:06:52;;;;;;;;;;;;;;;22.38;28.83;100153.66;4467514;32;34108;-85
2022/05/18 09:12:24;;;;;;;;;;;;;;;23.18;28.27;100161.66;4467516;32;35306;-85
2022/05/18 09:14:52;;;;;;;;;;;;;;;23.16;28.99;100152.91;4467051;32;33845;-85
2022/05/18 09:17:20;;;;;;;;;;;;;;;21.95;30.18;100159.75;4467661;32;34130;-85
2022/05/18 09:19:56;;;;;;;;;;;;;;;22.73;29.50;100168.81;4467215;32;34322;-86
2022/05/18 09:22:33;;;;;;;;;;;;;;;23.14;28.36;100160.00;4453529;32;34290;-86
2022/05/18 09:25:08;;;;;;;;;;;;;;;23.19;28.10;100154.63;4467479;32;33775;-86
2022/05/18 09:27:45;;;;;;;;;;;;;;;23.61;28.74;100165.94;4453489;32;34140;-85
2022/05/18 09:30:12;;;;;;;;;;;;;;;22.73;28.16;100169.69;4466911;32;34172;-85
2022/05/18 09:32:39;;;;;;;;;;;;;;;23.07;26.63;100158.41;4467439;32;34220;-86
2022/05/18 09:35:19;;;;;;;;;;;;;;;24.87;25.33;100160.78;4467361;32;33950;-85
2022/05/18 09:37:50;;;;;;;;;;;;;;;24.44;24.20;100163.84;4467334;32;33330;-85
2022/05/18 09:40:22;;;;;;;;;;;;;;;23.31;26.20;100165.78;4453276;32;34446;-85
2022/05/18 09:42:56;;;;;;;;;;;;;;;23.02;26.98;100158.50;4467109;32;34357;-86
2022/05/18 09:45:25;;;;;;;;;;;;;;;23.04;27.06;100163.78;4467015;32;35238;-85
2022/05/18 09:48:00;;;;;;;;;;;;;;;24.22;25.26;100167.03;4467309;32;34416;-85
2022/05/18 09:50:28;;;;;;;;;;;;;;;24.02;24.54;100180.81;4453627;32;34410;-87
2022/05/18 09:52:55;;;;;;;;;;;;;;;22.82;27.76;100174.78;4467196;32;33841;-86
2022/05/18 09:55:23;;;;;;;;;;;;;;;22.51;26.63;100173.69;4467127;32;34337;-85
2022/05/18 09:57:53;;;;;;;;;;;;;;;23.83;26.08;100171.63;4466885;32;33566;-84
2022/05/18 10:00:28;;;;;;;;;;;;;;;23.59;24.46;100175.69;4453622;32;34323;-85
2022/05/18 10:08:33;;;;;;;;;;;;;;;25.15;22.70;100179.41;4455250;32;33860;-86
2022/05/18 10:11:04;;;;;;;;;;;;;;;25.01;23.03;100178.94;4452714;32;33941;-85
2022/05/18 10:13:32;;;;;;;;;;;;;;;24.82;22.16;100180.41;4452518;32;35073;-86
2022/05/18 10:16:19;;;;;;;;;;;;;;;24.93;23.15;100178.31;4466774;32;34787;-85
2022/05/18 10:18:51;;;;;;;;;;;;;;;24.00;23.64;100184.41;4466861;32;34123;-86
2022/05/18 10:21:21;;;;;;;;;;;;;;;24.44;25.90;100174.44;4452473;32;33419;-86
2022/05/18 10:24:17;;;;;;;;;;;;;;;24.64;24.36;100172.06;4466497;32;35082;-86
2022/05/18 10:26:44;;;;;;;;;;;;;;;24.50;24.28;100159.22;4460255;32;34129;-86
2022/05/18 10:29:11;;;;;;;;;;;;;;;24.98;22.54;100171.94;4454766;32;33408;-88
2022/05/18 10:31:43;;;;;;;;;;;;;;;24.12;24.19;100177.91;4468842;32;34177;-85
2022/05/18 10:34:13;;;;;;;;;;;;;;;23.72;21.64;100178.97;4454844;32;34323;-84
2022/05/18 10:36:42;;;;;;;;;;;;;;;23.95;22.19;100165.13;4468819;32;33640;-86
2022/05/18 10:39:09;;;;;;;;;;;;;;;24.56;22.64;100162.63;4454770;32;33513;-86
2022/05/18 10:41:41;;;;;;;;;;;;;;;25.17;20.73;100160.81;4454544;32;34281;-85
2022/05/18 10:44:13;;;;;;;;;;;;;;;23.69;21.72;100166.66;4454810;32;33893;-86
2022/05/18 10:46:44;;;;;;;;;;;;;;;24.33;19.71;100157.94;4468689;32;34013;-86
2022/05/18 10:49:21;;;;;;;;;;;;;;;24.76;20.93;100152.28;4454517;32;33220;-86
2022/05/18 10:51:49;;;;;;;;;;;;;;;24.79;19.73;100159.28;4468519;32;34108;-86
2022/05/18 10:54:18;;;;;;;;;;;;;;;25.32;20.77;100154.12;4469165;32;34910;-86
2022/05/18 10:56:45;;;;;;;;;;;;;;;24.84;19.88;100157.34;4454481;32;33778;-86
2022/05/18 10:59:19;;;;;;;;;;;;;;;24.37;20.80;100157.78;4468778;32;33470;-88
2022/05/18 11:02:02;;;;;;;;;;;;;;;25.55;19.78;100143.62;4468078;32;34957;-86
2022/05/18 11:04:44;;;;;;;;;;;;;;;24.48;19.21;100155.75;4468642;32;35329;-86
2022/05/18 11:07:11;;;;;;;;;;;;;;;25.20;19.54;100150.97;4454649;32;33712;-84
2022/05/18 11:09:45;;;;;;;;;;;;;;;23.33;20.56;100170.16;4468523;32;34328;-86
2022/05/18 11:12:16;;;;;;;;;;;;;;;24.30;22.34;100160.66;4468086;32;34669;-86
2022/05/18 11:14:59;;;;;;;;;;;;;;;25.44;19.59;100153.75;4468412;32;34905;-86
2022/05/18 11:17:30;;;;;;;;;;;;;;;25.18;20.74;100157.22;4468325;32;34135;-86
2022/05/18 11:20:04;;;;;;;;;;;;;;;25.19;20.87;100148.34;4468642;32;34347;-85
2022/05/18 11:22:37;;;;;;;;;;;;;;;25.22;18.50;100145.59;4468652;32;34425;-85
2022/05/18 11:25:27;;;;;;;;;;;;;;;25.18;16.48;100144.81;4468103;32;34063;-85
2022/05/18 11:28:33;;;;;;;;;;;;;;;25.09;16.87;100137.12;4456301;32;35027;-86
2022/05/18 11:31:00;;;;;;;;;;;;;;;25.18;20.55;100151.91;4454370;32;33485;-85
2022/05/18 11:33:39;;;;;;;;;;;;;;;25.36;15.72;100138.06;4468381;32;34925;-85
2022/05/18 11:36:25;;;;;;;;;;;;;;;25.98;14.54;100138.66;4454265;32;34914;-85
2022/05/18 11:38:59;;;;;;;;;;;;;;;25.68;16.17;100125.50;4468415;32;33909;-85
2022/05/18 11:41:30;;;;;;;;;;;;;;;25.55;15.35;100130.34;4468041;32;34298;-85
2022/05/18 11:43:57;;;;;;;;;;;;;;;24.64;17.23;100145.56;4454037;32;34363;-86
2022/05/18 11:46:28;;;;;;;;;;;;;;;24.71;17.54;100140.94;4468234;32;35356;-86
2022/05/18 11:49:00;;;;;;;;;;;;;;;24.13;18.47;100148.75;4468084;32;35076;-85
2022/05/18 11:51:28;;;;;;;;;;;;;;;24.33;16.56;100144.69;4468138;32;33235;-86
2022/05/18 11:53:55;;;;;;;;;;;;;;;25.55;18.51;100146.28;4467839;32;34024;-86
2022/05/18 11:56:38;;;;;;;;;;;;;;;26.32;15.57;100130.34;4468091;32;34499;-86
2022/05/18 12:01:50;;;;;;;;;;;;;;;27.59;14.75;100131.63;4467964;32;34359;-86
2022/05/18 12:04:18;;;;;;;;;;;;;;;26.14;17.86;100130.12;4453922;32;35093;-85
2022/05/18 12:07:01;;;;;;;;;;;;;;;25.32;15.98;100133.78;4468089;32;34541;-85
2022/05/18 12:09:32;;;;;;;;;;;;;;;26.01;15.80;100133.25;4467857;32;34123;-85
2022/05/18 12:12:22;;;;;;;;;;;;;;;26.18;16.84;100130.88;4468043;32;33361;-84
2022/05/18 12:14:50;;;;;;;;;;;;;;;25.93;14.69;100137.03;4454210;32;34229;-85
2022/05/18 12:17:39;;;;;;;;;;;;;;;26.42;15.32;100129.97;4468039;32;35125;-86
2022/05/18 12:20:10;;;;;;;;;;;;;;;25.98;15.57;100128.91;4454166;32;34844;-86
2022/05/18 12:22:38;;;;;;;;;;;;;;;26.09;17.33;100132.06;4468100;32;33263;-85
2022/05/18 12:25:06;;;;;;;;;;;;;;;26.32;16.13;100125.03;4460110;32;33224;-86
2022/05/18 12:27:33;;;;;;;;;;;;;;;25.30;16.02;100129.41;4469232;32;35207;-86
2022/05/18 12:30:02;;;;;;;;;;;;;;;25.36;14.93;100134.53;4482133;32;34014;-86
2022/05/18 12:32:31;;;;;;;;;;;;;;;26.33;15.45;100132.09;4477659;32;34027;-86
2022/05/18 12:35:12;;;;;;;;;;;;;;;26.86;13.71;100139.91;4483530;32;34986;-86
2022/05/18 12:37:49;;;;;;;;;;;;;;;26.73;16.96;100143.94;4468596;32;34372;-87
2022/05/18 12:40:34;;;;;;;;;;;;;;;26.61;14.13;100140.81;4483408;32;34296;-85
2022/05/18 12:43:04;;;;;;;;;;;;;;;27.38;14.50;100133.38;4483561;32;34210;-86
2022/05/18 12:45:36;;;;;;;;;;;;;;;27.70;14.47;100122.31;4469276;32;34384;-86
2022/05/18 12:48:16;;;;;;;;;;;;;;;28.37;14.65;100132.72;4468398;32;35086;-85
2022/05/18 12:50:50;;;;;;;;;;;;;;;27.74;15.23;100129.25;4469531;32;33964;-85
2022/05/18 12:53:18;;;;;;;;;;;;;;;26.48;17.30;100131.59;4469380;32;34016;-86
2022/05/18 12:55:52;;;;;;;;;;;;;;;27.55;15.09;100132.69;4469453;32;34869;-86
2022/05/18 12:58:25;;;;;;;;;;;;;;;26.24;15.88;100135.09;4483391;32;35316;-85
2022/05/18 13:01:11;;;;;;;;;;;;;;;25.28;16.70;100148.06;4483540;31;34164;-85
2022/05/18 13:03:48;;;;;;;;;;;;;;;25.35;16.69;100143.44;4483562;32;34272;-85
2022/05/18 13:06:35;;;;;;;;;;;;;;;25.96;16.78;100133.44;4483759;32;35160;-85
2022/05/18 13:09:04;;;;;;;;;;;;;;;25.50;16.98;100136.75;4474602;32;33812;-85
2022/05/18 13:11:54;;;;;;;;;;;;;;;25.23;15.06;100132.28;4469116;32;34520;-85
2022/05/18 13:14:35;;;;;;;;;;;;;;;25.44;15.00;100140.47;4483217;32;33756;-86
2022/05/18 13:17:04;;;;;;;;;;;;;;;26.93;16.34;100141.38;4483155;32;34447;-86
2022/05/18 13:19:32;;;;;;;;;;;;;;;26.43;14.96;100122.84;4483021;31;34199;-86